createdAt,value
2022-08-18T00:01:45.430Z,54.14
2022-08-18T00:04:34.828Z,54.41
2022-08-18T00:07:00.615Z,54.47
2022-08-18T00:09:32.039Z,54.48
2022-08-18T00:12:00.674Z,54.41
2022-08-18T00:14:27.602Z,54.49
2022-08-18T00:16:55.241Z,54.62
2022-08-18T00:19:45.962Z,54.70
2022-08-18T00:22:14.662Z,54.95
2022-08-18T00:24:48.426Z,55.15
2022-08-18T00:27:21.986Z,55.29
2022-08-18T00:29:51.609Z,55.50
2022-08-18T00:32:19.693Z,55.72
2022-08-18T00:34:46.592Z,55.99
2022-08-18T00:37:13.531Z,56.24
2022-08-18T00:39:46.460Z,56.52
2022-08-18T00:42:27.353Z,56.68
2022-08-18T00:44:59.708Z,56.72
2022-08-18T00:47:32.805Z,57.13
2022-08-18T00:50:30.218Z,57.06
2022-08-18T00:52:58.681Z,57.10
2022-08-18T00:55:30.791Z,57.18
2022-08-18T00:58:01.999Z,57.30
2022-08-18T01:00:29.241Z,57.30
2022-08-18T01:02:57.289Z,57.63
2022-08-18T01:05:34.196Z,58.01
2022-08-18T01:08:01.129Z,58.16
2022-08-18T01:10:28.188Z,58.31
2022-08-18T01:12:56.500Z,58.45
2022-08-18T01:15:28.072Z,58.47
2022-08-18T01:18:16.323Z,58.83
2022-08-18T01:21:31.780Z,58.66
2022-08-18T01:23:58.696Z,58.52
2022-08-18T01:26:26.267Z,58.74
2022-08-18T01:28:54.164Z,59.00
2022-08-18T01:31:31.388Z,59.35
2022-08-18T01:33:59.008Z,59.36
2022-08-18T01:36:25.809Z,59.31
2022-08-18T01:38:53.669Z,59.18
2022-08-18T01:41:29.672Z,59.37
2022-08-18T01:43:58.721Z,59.50
2022-08-18T01:46:26.352Z,59.49
2022-08-18T01:48:53.856Z,59.47
2022-08-18T01:51:38.808Z,59.81
2022-08-18T01:54:07.913Z,59.89
2022-08-18T01:56:34.790Z,60.06
2022-08-18T01:59:01.648Z,60.40
2022-08-18T02:01:36.707Z,60.40
2022-08-18T02:04:30.899Z,60.84
2022-08-18T02:06:51.572Z,60.81
2022-08-18T02:09:23.690Z,60.73
2022-08-18T02:11:51.389Z,60.94
2022-08-18T02:14:25.334Z,61.08
2022-08-18T02:17:02.452Z,61.31
2022-08-18T02:19:33.673Z,61.30
2022-08-18T02:22:00.701Z,61.29
2022-08-18T02:24:27.849Z,61.47
2022-08-18T02:26:54.755Z,61.46
2022-08-18T02:29:21.811Z,61.61
2022-08-18T02:31:49.256Z,61.58
2022-08-18T02:34:16.602Z,61.66
2022-08-18T02:36:46.900Z,61.68
2022-08-18T02:39:13.759Z,61.46
2022-08-18T02:41:40.649Z,61.66
2022-08-18T02:44:08.301Z,61.83
2022-08-18T02:46:35.505Z,61.77
2022-08-18T02:49:02.539Z,61.93
2022-08-18T02:51:29.498Z,61.71
2022-08-18T02:53:59.512Z,61.57
2022-08-18T02:56:41.679Z,61.58
2022-08-18T02:59:16.487Z,61.50
2022-08-18T03:01:46.619Z,61.44
2022-08-18T03:04:14.530Z,61.43
2022-08-18T03:06:41.779Z,61.40
2022-08-18T03:09:09.525Z,61.28
2022-08-18T03:11:37.320Z,61.42
2022-08-18T03:14:05.544Z,61.34
2022-08-18T03:16:33.452Z,61.32
2022-08-18T03:19:00.929Z,61.18
2022-08-18T03:21:28.471Z,61.06
2022-08-18T03:24:00.497Z,61.07
2022-08-18T03:26:28.960Z,61.11
2022-08-18T03:29:00.526Z,61.12
2022-08-18T03:31:31.408Z,60.95
2022-08-18T03:33:59.326Z,60.77
2022-08-18T03:36:32.158Z,60.73
2022-08-18T03:38:59.657Z,60.72
2022-08-18T03:41:43.677Z,60.68
2022-08-18T03:44:14.667Z,60.50
2022-08-18T03:46:42.406Z,60.50
2022-08-18T03:49:09.713Z,60.54
2022-08-18T03:51:37.074Z,60.71
2022-08-18T03:54:04.950Z,60.53
2022-08-18T03:56:35.971Z,60.21
2022-08-18T03:59:15.932Z,60.12
2022-08-18T04:01:43.268Z,59.82
2022-08-18T04:04:15.399Z,59.50
2022-08-18T04:06:43.714Z,59.28
2022-08-18T04:09:11.531Z,59.13
2022-08-18T04:11:39.232Z,59.04
2022-08-18T04:14:06.244Z,58.98
2022-08-18T04:16:33.586Z,58.63
2022-08-18T04:19:03.381Z,58.58
2022-08-18T04:21:43.053Z,58.37
2022-08-18T04:24:10.996Z,58.25
2022-08-18T04:26:39.264Z,58.08
2022-08-18T04:29:06.846Z,57.99
2022-08-18T04:31:33.836Z,57.70
2022-08-18T04:34:01.056Z,57.24
2022-08-18T04:36:28.380Z,57.11
2022-08-18T04:38:56.903Z,56.84
2022-08-18T04:41:27.806Z,56.00
2022-08-18T04:43:55.815Z,55.59
2022-08-18T04:46:24.200Z,55.20
2022-08-18T04:48:52.220Z,54.80
2022-08-18T04:52:26.900Z,54.34
2022-08-18T04:54:06.976Z,54.19
2022-08-18T04:56:36.820Z,54.01
2022-08-18T04:59:07.062Z,53.87
2022-08-18T05:01:35.559Z,53.68
2022-08-18T05:04:02.526Z,53.17
2022-08-18T05:06:29.592Z,52.87
2022-08-18T05:08:57.850Z,52.69
2022-08-18T05:11:25.593Z,52.40
2022-08-18T05:13:53.013Z,52.24
2022-08-18T05:16:27.434Z,52.36
2022-08-18T05:18:55.556Z,51.87
2022-08-18T05:21:24.405Z,51.96
2022-08-18T05:23:52.137Z,51.86
2022-08-18T05:26:19.427Z,51.68
2022-08-18T05:28:47.029Z,51.64
2022-08-18T05:31:15.584Z,51.68
2022-08-18T05:33:42.857Z,51.57
2022-08-18T05:36:19.252Z,51.43
2022-08-18T05:38:52.256Z,51.34
2022-08-18T05:41:34.149Z,50.97
2022-08-18T05:44:01.239Z,50.81
2022-08-18T05:46:54.408Z,50.46
2022-08-18T05:49:21.914Z,49.93
2022-08-18T05:51:49.689Z,49.83
2022-08-18T05:54:35.889Z,49.67
2022-08-18T05:57:03.807Z,49.73
2022-08-18T05:59:32.497Z,49.30
2022-08-18T06:02:01.228Z,49.23
2022-08-18T06:04:55.307Z,48.98
2022-08-18T06:10:11.170Z,48.28
2022-08-18T06:12:47.101Z,47.83
2022-08-18T06:15:24.420Z,47.99
2022-08-18T06:17:55.401Z,47.65
2022-08-18T06:20:22.679Z,47.78
2022-08-18T06:23:02.368Z,47.70
2022-08-18T06:25:34.325Z,47.68
2022-08-18T06:28:02.801Z,47.57
2022-08-18T06:30:32.793Z,47.75
2022-08-18T06:33:03.718Z,47.34
2022-08-18T06:35:30.635Z,47.43
2022-08-18T06:38:28.469Z,47.21
2022-08-18T06:41:02.885Z,46.94
2022-08-18T06:43:30.044Z,46.96
2022-08-18T06:45:57.180Z,46.56
2022-08-18T06:48:30.103Z,46.48
2022-08-18T06:50:58.312Z,46.49
2022-08-18T06:53:45.155Z,46.38
2022-08-18T06:59:26.264Z,45.70
2022-08-18T07:01:55.147Z,45.42
2022-08-18T07:04:33.321Z,44.82
2022-08-18T07:07:01.406Z,44.72
2022-08-18T07:09:34.430Z,44.17
2022-08-18T07:12:07.014Z,43.90
2022-08-18T07:15:03.785Z,42.87
2022-08-18T07:17:43.657Z,42.31
2022-08-18T07:20:24.729Z,42.00
2022-08-18T07:22:55.166Z,41.91
2022-08-18T07:25:25.915Z,41.25
2022-08-18T07:27:56.278Z,41.16
2022-08-18T07:30:24.003Z,40.89
2022-08-18T07:33:17.329Z,40.94
2022-08-18T07:35:54.709Z,41.14
2022-08-18T07:38:43.305Z,40.88
2022-08-18T07:41:23.156Z,40.50
2022-08-18T07:43:52.828Z,40.36
2022-08-18T07:46:22.095Z,40.41
2022-08-18T07:48:49.384Z,40.02
2022-08-18T07:51:19.140Z,40.08
2022-08-18T07:53:54.467Z,39.50
2022-08-18T07:56:23.089Z,38.93
2022-08-18T07:59:02.919Z,38.88
2022-08-18T08:01:35.574Z,38.86
2022-08-18T08:04:32.353Z,38.48
2022-08-18T08:07:25.769Z,37.74
2022-08-18T08:09:56.743Z,38.09
2022-08-18T08:12:23.835Z,37.44
2022-08-18T08:15:01.318Z,36.85
2022-08-18T08:17:36.689Z,36.69
2022-08-18T08:20:22.468Z,35.92
2022-08-18T08:23:00.202Z,35.80
2022-08-18T08:25:47.845Z,35.60
2022-08-18T08:28:39.533Z,34.48
2022-08-18T08:31:33.488Z,34.28
2022-08-18T08:34:07.628Z,33.61
2022-08-18T08:36:36.331Z,33.97
2022-08-18T08:39:23.418Z,33.39
2022-08-18T08:42:00.374Z,32.64
2022-08-18T08:44:58.754Z,32.29
2022-08-18T08:47:29.976Z,31.81
2022-08-18T08:50:01.005Z,31.22
2022-08-18T08:52:46.167Z,31.10
2022-08-18T08:55:15.957Z,30.53
2022-08-18T08:57:55.881Z,30.53
2022-08-18T09:00:25.551Z,29.84
2022-08-18T09:03:07.903Z,29.50
2022-08-18T09:05:37.455Z,28.87
2022-08-18T09:08:07.357Z,28.30
2022-08-18T09:10:39.786Z,27.96
2022-08-18T09:13:06.641Z,27.62
2022-08-18T09:15:56.010Z,27.32
2022-08-18T09:18:45.236Z,27.42
2022-08-18T09:21:32.945Z,27.14
2022-08-18T09:24:06.437Z,27.01
2022-08-18T09:26:53.237Z,26.96
2022-08-18T09:29:30.769Z,26.49
2022-08-18T09:32:19.700Z,26.20
2022-08-18T09:35:05.437Z,26.24
2022-08-18T09:38:12.571Z,26.09
2022-08-18T09:41:14.849Z,25.69
2022-08-18T09:44:26.618Z,25.59
2022-08-18T09:46:57.582Z,25.68
2022-08-18T09:52:24.247Z,24.99
2022-08-18T09:54:59.635Z,24.38
2022-08-18T09:57:30.586Z,24.01
2022-08-18T10:00:12.832Z,23.80
2022-08-18T10:05:29.604Z,23.63
2022-08-18T10:08:21.443Z,23.85
2022-08-18T10:11:02.863Z,23.39
2022-08-18T10:13:39.214Z,23.53
2022-08-18T10:16:19.210Z,23.17
2022-08-18T10:18:50.640Z,23.62
2022-08-18T10:21:31.304Z,24.09
2022-08-18T10:26:56.538Z,23.51
2022-08-18T10:29:32.815Z,22.69
2022-08-18T10:32:00.164Z,22.21
2022-08-18T10:34:52.335Z,21.90
2022-08-18T10:37:26.642Z,21.94
2022-08-18T10:40:13.262Z,21.89
2022-08-18T10:43:00.419Z,21.25
2022-08-18T10:45:38.294Z,21.02
2022-08-18T10:48:17.214Z,20.61
2022-08-18T10:50:52.233Z,20.20
2022-08-18T10:53:40.460Z,20.18
2022-08-18T10:56:15.462Z,19.86
2022-08-18T10:58:56.758Z,19.92
2022-08-18T11:01:39.666Z,19.50
2022-08-18T11:04:16.012Z,19.40
2022-08-18T11:07:07.924Z,18.29
2022-08-18T11:09:50.954Z,18.09
2022-08-18T11:12:43.761Z,18.11
2022-08-18T11:15:22.149Z,18.37
2022-08-18T11:18:02.473Z,17.85
2022-08-18T11:20:32.072Z,17.63
2022-08-18T11:23:01.936Z,17.27
2022-08-18T11:25:31.820Z,17.45
2022-08-18T11:28:03.875Z,17.56
2022-08-18T11:30:33.001Z,18.12
2022-08-18T11:33:03.468Z,18.04
2022-08-18T11:35:33.490Z,17.94
2022-08-18T11:38:06.094Z,17.68
2022-08-18T11:43:41.627Z,17.89
2022-08-18T11:46:12.553Z,17.75
2022-08-18T11:48:52.122Z,17.15
2022-08-18T11:51:24.127Z,16.97
2022-08-18T11:53:58.252Z,16.88
2022-08-18T11:59:53.117Z,16.58
2022-08-18T12:02:16.737Z,15.90
2022-08-18T12:04:43.634Z,15.89
2022-08-18T12:07:11.742Z,16.04
2022-08-18T12:12:31.561Z,15.51
2022-08-18T12:15:17.609Z,15.52
2022-08-18T12:17:52.390Z,14.96
2022-08-18T12:20:20.942Z,14.53
2022-08-18T12:22:49.674Z,14.43
2022-08-18T12:25:24.929Z,14.59
2022-08-18T12:27:53.387Z,14.57
2022-08-18T12:30:20.371Z,14.73
2022-08-18T12:38:17.959Z,13.50
2022-08-18T12:40:45.150Z,13.76
2022-08-18T12:43:12.085Z,13.99
2022-08-18T12:45:40.355Z,14.52
2022-08-18T12:48:18.033Z,14.08
2022-08-18T12:50:55.825Z,14.31
2022-08-18T12:53:29.693Z,14.10
2022-08-18T12:56:12.343Z,14.06
2022-08-18T12:58:41.896Z,14.13
2022-08-18T13:01:08.841Z,13.70
2022-08-18T13:03:37.976Z,14.15
2022-08-18T13:06:13.546Z,14.01
2022-08-18T13:08:49.910Z,13.83
2022-08-18T13:11:23.517Z,13.38
2022-08-18T13:13:55.963Z,13.83
2022-08-18T13:16:39.172Z,13.85
2022-08-18T13:19:13.160Z,14.07
2022-08-18T13:21:41.660Z,13.85
2022-08-18T13:24:12.515Z,14.00
2022-08-18T13:26:45.803Z,13.91
2022-08-18T13:29:14.209Z,13.58
2022-08-18T13:31:42.419Z,13.83
2022-08-18T13:34:22.706Z,13.71
2022-08-18T13:36:51.519Z,13.52
2022-08-18T13:39:22.879Z,13.55
2022-08-18T13:41:54.478Z,13.07
2022-08-18T13:44:22.591Z,13.12
2022-08-18T13:46:58.459Z,13.22
2022-08-18T13:49:30.699Z,13.86
2022-08-18T13:52:03.396Z,13.56
2022-08-18T13:54:36.292Z,13.83
2022-08-18T13:57:06.723Z,13.68
2022-08-18T13:59:46.449Z,13.99
2022-08-18T14:02:14.058Z,14.19
2022-08-18T14:04:41.473Z,13.75
2022-08-18T14:07:13.540Z,14.23
2022-08-18T14:09:46.056Z,14.37
2022-08-18T14:12:23.273Z,14.44
2022-08-18T14:14:52.783Z,14.69
2022-08-18T14:17:25.526Z,14.59
2022-08-18T14:20:15.195Z,14.82
2022-08-18T14:23:11.253Z,15.33
2022-08-18T14:25:57.223Z,15.18
2022-08-18T14:28:27.622Z,14.82
2022-08-18T14:30:55.161Z,15.02
2022-08-18T14:33:50.041Z,15.02
2022-08-18T14:36:15.485Z,14.75
2022-08-18T14:38:42.519Z,14.85
2022-08-18T14:41:10.753Z,15.03
2022-08-18T14:43:51.607Z,15.46
2022-08-18T14:46:37.429Z,15.58
2022-08-18T14:49:12.576Z,15.45
2022-08-18T14:51:43.101Z,15.43
2022-08-18T14:54:10.393Z,15.66
2022-08-18T14:56:47.217Z,15.90
2022-08-18T14:59:16.357Z,15.81
2022-08-18T15:01:49.494Z,15.67
2022-08-18T15:04:23.704Z,15.79
2022-08-18T15:06:56.327Z,15.93
2022-08-18T15:09:27.497Z,15.56
2022-08-18T15:11:56.419Z,15.64
2022-08-18T15:14:33.061Z,16.30
2022-08-18T15:17:11.581Z,16.10
2022-08-18T15:19:58.796Z,16.09
2022-08-18T15:22:49.515Z,16.01
2022-08-18T15:25:37.671Z,16.22
2022-08-18T15:28:16.273Z,16.76
2022-08-18T15:30:46.720Z,17.89
2022-08-18T15:33:23.638Z,19.59
2022-08-18T15:35:52.487Z,20.70
2022-08-18T15:38:24.608Z,21.39
2022-08-18T15:41:03.333Z,21.94
2022-08-18T15:43:45.908Z,22.48
2022-08-18T15:46:16.791Z,23.14
2022-08-18T15:48:46.481Z,23.52
2022-08-18T15:51:13.490Z,24.12
2022-08-18T15:53:48.482Z,24.54
2022-08-18T15:56:21.151Z,24.82
2022-08-18T15:58:49.510Z,24.76
2022-08-18T16:01:20.851Z,25.32
2022-08-18T16:03:57.899Z,25.29
2022-08-18T16:06:27.663Z,25.87
2022-08-18T16:08:58.294Z,26.25
2022-08-18T16:11:29.306Z,26.23
2022-08-18T16:14:02.855Z,26.90
2022-08-18T16:16:35.957Z,26.76
2022-08-18T16:19:04.884Z,27.03
2022-08-18T16:21:31.896Z,27.46
2022-08-18T16:24:00.746Z,27.90
2022-08-18T16:26:27.995Z,27.98
2022-08-18T16:28:55.006Z,28.35
2022-08-18T16:31:26.367Z,28.58
2022-08-18T16:33:55.203Z,28.85
2022-08-18T16:36:28.175Z,28.73
2022-08-18T16:38:56.168Z,28.99
2022-08-18T16:41:28.796Z,29.19
2022-08-18T16:43:59.662Z,29.58
2022-08-18T16:46:27.316Z,29.71
2022-08-18T16:48:55.659Z,29.97
2022-08-18T16:51:23.231Z,30.18
2022-08-18T16:53:52.344Z,30.27
2022-08-18T16:56:21.018Z,30.18
2022-08-18T16:59:07.130Z,30.48
2022-08-18T17:01:52.888Z,31.02
2022-08-18T17:04:25.475Z,31.24
2022-08-18T17:06:56.301Z,31.73
2022-08-18T17:09:26.136Z,31.89
2022-08-18T17:11:56.041Z,32.49
2022-08-18T17:14:24.054Z,32.87
2022-08-18T17:16:54.002Z,33.09
2022-08-18T17:19:25.000Z,33.17
2022-08-18T17:21:52.229Z,33.80
2022-08-18T17:24:27.686Z,34.18
2022-08-18T17:26:59.864Z,34.80
2022-08-18T17:29:29.107Z,34.95
2022-08-18T17:32:00.328Z,35.22
2022-08-18T17:34:32.058Z,35.32
2022-08-18T17:36:59.326Z,35.69
2022-08-18T17:39:28.281Z,35.96
2022-08-18T17:42:14.037Z,36.27
2022-08-18T17:44:46.286Z,36.49
2022-08-18T17:47:21.029Z,36.58
2022-08-18T17:50:27.253Z,36.71
2022-08-18T17:53:05.631Z,37.49
2022-08-18T17:55:36.714Z,37.57
2022-08-18T17:58:05.040Z,37.75
2022-08-18T18:00:32.795Z,37.73
2022-08-18T18:02:59.885Z,37.86
2022-08-18T18:05:31.157Z,38.13
2022-08-18T18:07:59.163Z,38.90
2022-08-18T18:13:33.843Z,39.13
2022-08-18T18:16:02.910Z,39.38
2022-08-18T18:18:41.570Z,39.24
2022-08-18T18:21:09.004Z,39.62
2022-08-18T18:23:41.363Z,39.58
2022-08-18T18:26:28.920Z,39.89
2022-08-18T18:29:15.759Z,40.04
2022-08-18T18:31:53.751Z,40.24
2022-08-18T18:34:32.411Z,40.35
2022-08-18T18:37:01.362Z,40.52
2022-08-18T18:39:33.154Z,40.73
2022-08-18T18:42:17.245Z,40.96
2022-08-18T18:44:49.741Z,41.26
2022-08-18T18:47:23.133Z,41.39
2022-08-18T18:53:13.222Z,41.50
2022-08-18T18:55:44.997Z,42.07
2022-08-18T18:58:18.634Z,41.96
2022-08-18T19:00:53.440Z,42.28
2022-08-18T19:03:24.292Z,42.60
2022-08-18T19:05:57.372Z,42.78
2022-08-18T19:08:33.161Z,42.61
2022-08-18T19:11:17.204Z,42.80
2022-08-18T19:13:49.449Z,42.62
2022-08-18T19:16:30.421Z,42.81
2022-08-18T19:19:38.071Z,43.01
2022-08-18T19:22:04.108Z,43.23
2022-08-18T19:24:35.155Z,43.21
2022-08-18T19:27:03.698Z,43.32
2022-08-18T19:29:32.447Z,43.36
2022-08-18T19:32:02.452Z,43.39
2022-08-18T19:34:33.762Z,43.94
2022-08-18T19:37:40.321Z,44.22
2022-08-18T19:40:09.401Z,44.17
2022-08-18T19:42:53.605Z,44.05
2022-08-18T19:45:20.978Z,44.28
2022-08-18T19:47:49.473Z,44.53
2022-08-18T19:50:27.995Z,44.85
2022-08-18T19:52:55.689Z,45.00
2022-08-18T19:55:35.613Z,45.41
2022-08-18T19:58:34.866Z,45.21
2022-08-18T20:01:03.115Z,45.79
2022-08-18T20:03:53.717Z,45.89
2022-08-18T20:06:39.242Z,45.50
2022-08-18T20:09:20.253Z,45.50
2022-08-18T20:12:05.583Z,45.62
2022-08-18T20:14:33.692Z,45.67
2022-08-18T20:17:09.931Z,45.78
2022-08-18T20:19:48.053Z,46.20
2022-08-18T20:22:39.873Z,46.19
2022-08-18T20:25:30.689Z,46.34
2022-08-18T20:28:00.718Z,46.14
2022-08-18T20:30:32.801Z,46.25
2022-08-18T20:33:14.906Z,46.55
2022-08-18T20:35:52.166Z,46.53
2022-08-18T20:38:20.688Z,46.46
2022-08-18T20:40:48.644Z,46.96
2022-08-18T20:43:44.469Z,47.35
2022-08-18T20:46:18.273Z,47.37
2022-08-18T20:48:47.649Z,47.60
2022-08-18T20:51:16.312Z,47.84
2022-08-18T20:53:43.154Z,48.45
2022-08-18T20:56:32.403Z,48.48
2022-08-18T20:59:16.584Z,48.85
2022-08-18T21:01:43.409Z,48.86
2022-08-18T21:04:10.404Z,48.88
2022-08-18T21:06:44.711Z,48.80
2022-08-18T21:09:16.620Z,49.03
2022-08-18T21:11:44.894Z,49.19
2022-08-18T21:14:13.159Z,49.36
2022-08-18T21:16:42.050Z,49.45
2022-08-18T21:19:28.072Z,49.70
2022-08-18T21:21:59.626Z,49.92
2022-08-18T21:24:31.749Z,50.11
2022-08-18T21:26:59.858Z,50.40
2022-08-18T21:29:26.968Z,50.30
2022-08-18T21:32:18.484Z,50.74
2022-08-18T21:34:45.413Z,50.91
2022-08-18T21:37:13.909Z,50.97
2022-08-18T21:39:54.714Z,50.91
2022-08-18T21:42:52.541Z,50.64
2022-08-18T21:45:22.041Z,50.08
2022-08-18T21:47:53.112Z,49.87
2022-08-18T21:50:24.190Z,49.62
2022-08-18T21:52:58.638Z,48.86
2022-08-18T21:55:27.412Z,48.29
2022-08-18T21:57:57.496Z,47.94
2022-08-18T22:00:25.833Z,47.78
2022-08-18T22:03:10.631Z,47.62
2022-08-18T22:05:57.820Z,47.62
2022-08-18T22:08:27.283Z,47.63
2022-08-18T22:11:38.373Z,47.68
2022-08-18T22:14:19.870Z,47.61
2022-08-18T22:16:47.788Z,47.60
2022-08-18T22:19:14.608Z,47.61
2022-08-18T22:21:49.887Z,47.36
2022-08-18T22:24:22.037Z,47.74
2022-08-18T22:27:09.728Z,47.64
2022-08-18T22:29:45.836Z,47.58
2022-08-18T22:32:13.710Z,47.60
2022-08-18T22:34:40.896Z,47.70
2022-08-18T22:37:19.233Z,47.92
2022-08-18T22:39:48.164Z,47.58
2022-08-18T22:42:15.926Z,47.47
2022-08-18T22:44:43.611Z,47.47
2022-08-18T22:47:10.622Z,47.52
2022-08-18T22:49:37.677Z,47.33
2022-08-18T22:52:08.815Z,47.21
2022-08-18T22:54:35.619Z,46.79
2022-08-18T22:57:02.738Z,46.71
2022-08-18T22:59:32.658Z,46.32
2022-08-18T23:02:01.216Z,46.18
2022-08-18T23:04:28.246Z,45.99
2022-08-18T23:06:55.772Z,45.79
2022-08-18T23:09:24.004Z,45.72
2022-08-18T23:11:51.297Z,45.64
2022-08-18T23:14:18.264Z,45.61
2022-08-18T23:16:45.447Z,45.68
2022-08-18T23:19:15.873Z,45.53
2022-08-18T23:21:43.111Z,45.49
2022-08-18T23:24:10.679Z,45.42
2022-08-18T23:26:37.945Z,45.47
2022-08-18T23:29:05.184Z,45.49
2022-08-18T23:31:32.403Z,45.39
2022-08-18T23:34:00.771Z,45.53
2022-08-18T23:36:28.980Z,45.23
2022-08-18T23:39:00.696Z,45.42
2022-08-18T23:41:27.597Z,45.17
2022-08-18T23:43:54.561Z,45.15
2022-08-18T23:46:22.428Z,45.25
2022-08-18T23:48:50.917Z,45.28
2022-08-18T23:51:32.372Z,45.28
2022-08-18T23:54:00.324Z,45.46
2022-08-18T23:56:30.935Z,45.43
2022-08-18T23:58:58.012Z,45.49
